Date,TemperatureHighF,TemperatureAvgF,TemperatureLowF,DewpointHighF,DewpointAvgF,DewpointLowF,HumidityHigh,HumidityAvg,HumidityLow,PressureMaxIn,PressureMinIn,WindSpeedMaxMPH,WindSpeedAvgMPH,GustSpeedMaxMPH,PrecipitationSumIn
2013-1-1,36,31,27,36,30,26,98,94,81,30.61,30.46,5,0,8,0.00
2013-1-2,47,35,28,32,25,14,97,72,27,30.46,30.29,5,1,11,0.01
2013-1-3,45,35,26,32,21,10,93,63,27,30.30,30.18,9,3,25,0.00
2013-1-4,46,42,37,43,38,32,97,83,78,30.39,30.22,12,3,24,0.00
2013-1-5,43,42,40,37,35,30,84,77,61,30.29,30.18,10,4,17,0.10
2013-1-6,45,42,40,39,36,34,96,79,66,30.26,30.06,11,6,17,0.08
2013-1-7,49,45,40,48,40,34,99,83,59,30.24,29.90,9,4,18,0.36
2013-1-8,52,46,41,47,41,36,98,82,72,30.24,29.76,15,5,26,0.18
2013-1-9,51,39,33,44,38,32,98,95,77,30.04,29.75,16,3,19,0.81
2013-1-10,40,34,30,36,30,19,97,83,55,30.21,30.04,6,1,14,0.02
2013-1-11,37,29,24,24,21,17,94,72,46,30.44,30.21,5,0,6,0.01
2013-1-12,35,27,22,24,19,17,92,73,50,30.56,30.43,4,0,6,0.00
2013-1-13,35,28,21,23,19,16,81,70,55,30.60,30.54,4,1,6,0.01
2013-1-14,34,32,31,32,27,22,96,80,68,30.66,30.56,5,3,10,0.00
2013-1-15,43,34,28,34,29,21,97,81,42,30.80,30.67,2,0,6,0.00
2013-1-16,42,32,25,30,26,24,96,80,57,30.79,30.63,2,0,5,0.01
2013-1-17,35,29,27,34,28,24,98,96,84,30.63,30.40,2,0,5,0.00
2013-1-18,37,31,25,36,30,23,99,97,93,30.46,30.38,3,0,6,0.01
2013-1-19,36,33,31,36,33,30,99,99,98,30.50,30.44,2,0,5,0.00
2013-1-20,38,31,26,38,31,26,100,99,98,30.51,30.38,4,0,7,0.01
2013-1-21,33,31,28,33,31,28,100,100,100,30.38,30.24,3,0,6,0.00
2013-1-22,35,30,25,35,30,25,100,99,97,30.26,30.01,4,0,6,0.00
2013-1-23,42,39,34,41,35,24,100,86,48,30.22,29.92,10,4,15,0.17
2013-1-24,44,42,38,40,36,31,98,82,61,30.30,30.12,13,4,19,0.07
2013-1-25,51,45,40,40,37,33,82,74,52,30.13,30.00,12,4,19,0.00
2013-1-26,42,39,38,39,35,32,97,85,73,30.12,29.95,8,4,13,0.29
2013-1-27,42,39,37,40,37,35,98,93,82,30.14,30.08,5,1,8,0.48
2013-1-28,44,38,36,40,36,34,98,93,78,30.16,30.08,7,1,13,0.55
2013-1-29,46,43,40,43,40,35,98,89,73,30.43,30.16,9,3,12,0.42
2013-1-30,47,44,42,47,44,41,99,99,98,30.47,30.42,6,2,7,0.19
2013-1-31,48,46,44,46,43,41,99,92,80,30.47,30.38,7,2,11,0.12
2013-2-1,52,45,38,45,40,35,98,83,54,30.51,30.43,5,1,8,0.01
2013-2-2,47,40,35,43,38,35,99,94,68,30.49,30.34,5,1,7,0.01
2013-2-3,47,42,37,44,40,37,98,94,76,30.40,30.29,5,1,9,0.07
2013-2-4,50,46,43,44,39,36,99,79,61,30.28,29.94,10,3,12,0.00
2013-2-5,50,47,45,38,36,34,77,66,54,30.00,29.87,13,6,22,0.00
2013-2-6,48,45,43,38,34,30,78,65,52,30.10,29.86,10,5,18,0.06
2013-2-7,48,42,32,36,32,28,96,68,48,30.28,29.86,12,4,19,0.11
2013-2-8,44,36,29,34,31,28,96,82,61,30.41,30.29,3,0,5,0.01
2013-2-9,43,40,38,40,38,34,98,91,79,30.44,30.36,4,1,7,0.04
2013-2-10,45,38,31,41,34,29,99,86,55,30.49,30.42,5,0,8,0.01
2013-2-11,42,41,39,41,38,32,98,89,73,30.45,30.42,5,2,8,0.09
2013-2-12,48,45,41,42,40,37,98,85,73,30.50,30.36,8,3,12,0.00
2013-2-13,47,45,43,40,36,33,82,71,63,30.59,30.39,4,0,8,0.01
2013-2-14,49,44,42,42,39,36,97,83,67,30.65,30.58,6,2,10,0.09
2013-2-15,52,44,37,43,39,35,98,83,54,30.65,30.25,6,1,8,0.00
2013-2-16,48,43,39,43,37,31,98,80,57,30.27,30.20,17,4,26,0.08
2013-2-17,44,41,37,38,34,32,93,77,62,30.33,30.20,10,2,14,0.12
2013-2-18,45,39,35,33,30,29,86,71,54,30.20,29.85,7,4,12,0.00
2013-2-19,48,42,34,34,30,24,95,64,41,30.09,29.83,8,2,11,0.00
2013-2-20,44,38,34,35,32,29,96,77,62,30.13,30.08,7,4,12,0.01
2013-2-21,43,40,38,39,35,32,95,81,65,30.15,30.09,6,4,13,0.04
2013-2-22,45,42,39,38,33,25,88,70,51,30.11,29.75,15,7,21,0.17
2013-2-23,47,42,37,35,31,26,84,65,50,30.45,29.98,13,5,19,0.12
2013-2-24,47,43,38,33,31,28,79,63,50,30.46,30.00,12,7,20,0.00
2013-2-25,48,43,40,36,30,23,85,61,39,30.38,29.96,22,9,35,0.13
2013-2-26,46,42,37,30,25,-100,72,55,38,30.43,30.26,12,-12,19,0.00
2013-2-27,51,44,39,37,33,24,80,66,35,30.39,30.28,6,1,9,0.00
2013-2-28,53,45,40,45,39,33,96,80,70,30.36,30.26,11,5,18,0.13
2013-3-1,57,54,52,45,43,40,76,67,59,30.40,30.33,12,7,25,0.01
2013-3-2,56,49,42,43,38,28,80,65,54,30.33,30.12,16,7,17,0.15
2013-3-3,48,42,34,34,28,21,75,60,34,30.40,30.26,14,3,19,0.03
2013-3-4,50,38,29,34,24,-100,95,62,27,30.40,30.03,6,-16,11,0.00
2013-3-5,54,45,39,36,25,12,75,48,21,30.03,29.82,3,0,8,0.01
2013-3-6,43,41,39,40,36,31,96,84,67,29.97,29.67,5,1,8,0.33
2013-3-7,48,41,34,41,38,33,97,89,65,30.19,29.97,6,3,12,0.12
2013-3-8,50,40,32,44,33,29,99,81,52,30.33,30.18,4,1,10,0.01
2013-3-9,52,40,31,36,32,29,96,75,42,30.58,30.33,6,1,10,0.00
2013-3-10,46,41,36,38,34,31,85,76,64,30.58,30.52,4,0,6,0.00
2013-3-11,53,44,36,40,35,23,97,72,31,30.54,30.22,8,1,13,0.02
2013-3-12,53,51,47,47,43,37,85,76,65,30.22,30.10,10,6,19,0.20
2013-3-13,53,52,50,47,45,43,83,78,71,30.25,30.15,11,7,17,0.15
2013-3-14,53,52,49,46,43,38,81,72,57,30.21,30.08,12,7,21,0.02
2013-3-15,59,52,48,47,42,40,96,71,50,30.28,30.20,8,2,12,0.01
2013-3-16,49,45,41,47,39,30,97,81,62,30.20,29.97,13,3,18,0.37
2013-3-17,46,42,39,32,28,23,76,57,43,30.26,30.03,17,8,26,0.02
2013-3-18,49,42,36,33,27,11,82,58,22,30.34,30.17,15,5,24,0.04
2013-3-19,52,43,34,37,27,20,78,56,30,30.33,29.66,11,3,16,0.00
2013-3-20,54,47,41,44,32,-100,89,61,39,30.06,29.42,20,-1,30,0.08
2013-3-21,46,40,36,32,29,20,81,65,42,30.27,30.07,14,6,20,0.10
2013-3-22,45,38,32,35,25,-100,97,63,32,30.47,30.28,13,-10,18,0.05
2013-3-23,49,39,32,27,22,13,78,55,23,30.50,30.39,7,3,9,0.00
2013-3-24,54,42,31,30,24,14,74,51,21,30.39,30.21,6,1,10,0.00
2013-3-25,59,47,35,29,24,13,68,44,18,30.22,30.03,7,1,11,0.00
2013-3-26,57,47,37,35,31,26,75,55,31,30.10,30.05,6,1,8,0.00
2013-3-27,55,48,41,41,36,33,78,64,43,30.07,30.03,2,0,5,0.00
2013-3-28,61,50,40,42,38,35,93,66,39,30.23,30.08,6,1,10,0.00
2013-3-29,61,50,40,43,40,35,96,71,39,30.34,30.23,4,1,8,0.00
2013-3-30,63,50,39,48,40,32,99,73,38,30.36,30.17,7,2,11,0.00
2013-3-31,66,51,39,40,35,-100,96,59,27,30.17,29.99,5,-11,10,0.00
2013-4-1,59,50,42,44,40,36,83,70,52,30.23,30.04,7,2,14,0.00
2013-4-2,53,50,46,42,40,38,83,67,60,30.28,30.23,5,1,7,0.00
2013-4-3,60,52,44,45,40,33,96,67,40,30.27,30.07,5,1,8,0.00
2013-4-6,50,48,47,40,36,33,70,62,59,29.94,29.87,7,5,11,0.11
2013-4-7,47,44,42,42,39,33,96,84,59,29.95,29.60,7,2,10,0.52
2013-4-8,55,46,43,43,41,36,97,81,56,30.35,29.96,5,1,9,0.03
2013-4-9,54,50,44,39,36,30,79,60,41,30.42,30.24,9,4,16,0.00
2013-4-10,54,51,46,46,37,33,86,60,46,30.33,29.97,18,9,28,0.06
2013-4-11,53,48,39,37,31,21,72,54,29,30.38,30.29,10,4,14,0.00
2013-4-12,47,41,37,38,34,30,87,75,56,30.28,29.75,11,4,20,0.26
2013-4-13,48,41,38,39,32,-100,96,72,54,30.07,29.77,17,-8,24,0.18
2013-4-14,52,44,38,39,33,22,97,69,35,30.09,30.00,6,2,11,0.00
2013-4-15,54,45,37,37,34,31,94,67,46,30.27,30.02,8,2,12,0.00
2013-4-16,58,46,35,36,30,20,96,60,25,30.48,30.27,7,2,13,0.00
2013-4-17,57,47,37,34,31,28,73,55,33,30.55,30.48,8,4,13,0.00
2013-4-18,49,46,43,47,38,-100,96,78,59,30.53,30.28,9,-8,13,0.26
2013-4-19,53,50,48,51,48,44,98,92,77,30.27,30.14,8,4,13,0.28
2013-4-26,67,56,45,45,39,26,96,57,25,30.33,30.26,5,1,12,0.00
2013-4-27,55,52,48,49,40,32,96,67,43,30.28,30.21,8,2,11,0.09
2013-4-28,53,48,46,47,36,-100,94,68,52,30.29,30.00,5,-23,12,0.04
2013-4-29,53,48,44,41,28,19,78,49,29,30.22,29.99,17,9,27,0.04
2013-4-30,55,45,38,36,20,-100,87,46,18,30.53,30.22,13,-27,18,0.04
2013-5-1,62,48,35,33,27,19,81,50,21,30.67,30.53,6,2,13,0.00
2013-5-2,63,52,39,37,33,24,77,51,27,30.63,30.45,10,2,13,0.00
2013-5-3,67,55,41,41,36,30,88,53,28,30.48,30.30,9,2,12,0.00
2013-5-4,73,60,46,43,38,25,77,48,20,30.33,30.08,9,2,16,0.00
2013-5-5,78,63,45,43,38,32,77,44,22,30.08,29.84,5,1,9,0.00
2013-5-6,82,65,51,43,37,29,66,39,15,29.93,29.84,5,1,8,0.00
2013-5-7,68,57,48,46,44,41,80,64,42,30.06,29.89,7,1,9,0.00
2013-5-8,65,55,48,50,46,43,96,74,49,30.23,30.07,5,1,8,0.00
2013-5-9,66,54,47,49,45,42,96,74,43,30.31,30.20,3,0,8,0.00
2013-5-10,72,56,47,52,45,37,98,69,29,30.29,30.19,5,1,7,0.00
2013-5-11,77,60,51,46,43,37,73,56,26,30.25,30.06,4,0,8,0.00
2013-5-12,69,60,56,58,51,44,97,72,45,30.15,30.07,9,2,19,0.14
2013-5-13,65,56,48,50,46,41,96,71,50,30.26,29.98,13,3,18,0.25
2013-5-14,63,54,45,46,37,26,95,58,24,30.30,30.20,6,2,12,0.00
2013-5-15,65,53,45,49,39,28,92,62,26,30.20,30.08,7,2,12,0.05
2013-5-16,67,58,51,52,47,42,96,69,42,30.09,29.95,5,2,8,0.02
2013-5-17,62,55,51,52,46,40,96,72,51,30.12,30.01,6,2,12,0.07
2013-5-18,62,55,51,51,43,38,96,65,42,30.35,30.12,8,2,14,0.03
2013-5-19,64,55,50,46,42,37,77,63,39,30.48,30.35,6,1,11,0.01
2013-5-20,65,53,43,46,41,37,95,67,38,30.44,30.00,6,1,11,0.00
2013-5-21,56,49,47,48,45,40,97,88,59,29.99,29.87,5,0,10,0.39
2013-5-22,52,49,45,48,44,40,96,84,64,30.03,29.93,5,1,7,0.09
2013-5-23,59,50,44,46,40,34,97,74,41,30.08,30.01,12,2,13,0.01
2013-5-24,64,53,42,42,38,28,95,61,27,30.12,30.06,6,1,10,0.00
2013-5-25,66,56,49,49,42,28,95,63,26,30.12,30.06,8,2,13,0.00
2013-5-26,66,55,50,51,47,42,96,74,48,30.07,30.03,4,0,11,0.14
2013-5-27,60,56,52,51,47,44,78,72,61,30.02,29.78,10,5,18,0.10
2013-5-28,65,57,52,47,43,37,75,60,37,29.94,29.83,9,4,16,0.01
2013-5-29,54,52,50,50,45,41,96,76,63,30.04,29.75,5,1,10,0.22
2013-5-30,63,54,48,50,45,36,97,76,38,30.32,30.05,9,2,14,0.43
2013-5-31,66,56,49,52,43,32,97,67,29,30.43,30.32,3,0,8,0.06
2013-6-1,67,58,49,46,42,35,83,58,30,30.34,30.14,5,0,8,0.00
2013-6-2,69,59,53,47,43,39,77,56,33,30.17,30.11,5,2,12,0.00
2013-6-3,69,59,48,47,44,40,85,59,35,30.20,30.15,5,1,9,0.00
2013-6-4,76,61,48,50,44,37,95,57,30,30.22,30.11,4,1,10,0.00
2013-6-5,71,60,52,51,48,38,91,65,42,30.19,30.12,5,1,8,0.00
2013-6-6,74,61,49,50,43,27,95,55,22,30.14,30.09,7,1,10,0.00
2013-6-7,66,58,53,45,40,31,64,52,40,30.25,30.10,6,1,11,0.00
2013-6-8,64,57,51,43,40,36,68,54,40,30.27,30.19,6,1,10,0.00
2013-6-9,63,56,51,43,39,29,72,54,28,30.20,30.12,10,3,13,0.00
2013-6-10,68,56,44,43,40,36,92,58,31,30.13,29.97,5,1,10,0.00
2013-6-11,64,57,52,44,39,30,70,54,29,30.17,30.01,6,1,11,0.00
2013-6-12,67,57,51,45,41,32,75,56,28,30.22,30.17,8,2,12,0.00
2013-6-13,67,57,52,52,44,37,96,65,34,30.30,30.22,8,1,13,0.06
2013-6-14,67,57,52,46,42,37,79,59,35,30.31,30.15,5,1,8,0.00
2013-6-15,73,60,46,50,45,42,96,60,34,30.15,29.99,4,1,10,0.00
2013-6-16,68,60,51,50,46,44,78,60,44,30.17,30.06,4,0,8,0.01
2013-6-17,75,61,50,54,45,36,92,58,24,30.17,29.97,6,1,14,0.02
2013-6-18,72,62,55,55,42,26,96,54,18,30.04,29.95,12,3,17,0.00
2013-6-19,68,59,53,46,43,39,74,56,36,30.08,29.99,9,2,12,0.00
2013-6-20,57,54,53,51,47,42,95,77,57,30.19,30.04,8,2,14,0.39
2013-6-21,68,59,52,55,47,39,97,69,36,30.24,30.18,4,0,10,0.04
2013-6-22,75,63,50,52,47,42,96,59,32,30.21,29.93,5,1,8,0.00
2013-6-23,71,63,55,62,54,48,96,73,50,29.93,29.67,1,0,5,0.00
2013-6-24,67,62,58,60,52,46,97,73,48,29.76,29.63,7,2,18,0.03
2013-6-25,74,62,56,58,50,40,96,69,31,29.91,29.74,13,4,14,0.29
2013-6-26,74,63,56,56,50,44,93,64,34,30.15,29.90,9,4,14,0.00
2013-6-27,73,64,58,60,56,50,95,74,52,30.27,30.12,8,2,12,0.14
2013-6-28,78,66,58,61,57,53,97,74,48,30.27,30.13,3,0,7,0.00
2013-6-29,80,70,62,58,53,48,84,58,38,30.18,30.08,3,0,10,0.00
2013-6-30,86,70,58,59,49,-100,71,51,35,30.09,29.93,8,-16,11,0.00
2013-7-1,72,64,60,53,50,46,72,60,40,30.11,29.99,4,0,14,0.00
2013-7-2,74,64,57,56,46,37,94,56,27,30.19,30.11,7,1,13,0.00
2013-7-3,73,62,55,47,43,36,72,51,29,30.24,30.14,8,2,11,0.00
2013-7-4,72,62,54,48,45,35,72,55,27,30.20,30.11,5,1,11,0.00
2013-7-5,73,63,51,50,47,40,94,60,30,30.12,30.02,4,1,10,0.00
2013-7-6,77,61,52,53,48,41,94,65,28,30.05,29.94,4,0,8,0.00
2013-7-7,77,65,54,53,46,40,92,55,28,30.01,29.95,6,1,9,0.00
2013-7-8,78,63,54,53,49,45,91,63,32,30.17,30.02,5,1,8,0.00
2013-7-9,77,63,53,55,49,41,96,64,34,30.20,30.09,4,1,11,0.00
2013-7-10,68,60,53,48,45,39,76,58,40,30.15,30.06,7,1,12,0.00
2013-7-11,67,59,54,44,40,32,64,49,28,30.16,30.08,9,2,14,0.00
2013-7-12,68,58,50,46,43,37,76,57,41,30.18,30.09,6,1,12,0.00
2013-7-13,75,61,47,46,42,34,93,54,26,30.29,30.18,5,1,10,0.00
2013-7-14,77,62,48,46,40,24,91,50,15,30.22,30.09,4,1,12,0.00
2013-7-15,79,64,50,49,41,27,92,50,17,30.14,29.97,7,2,16,0.00
2013-7-16,82,69,53,48,42,35,72,42,22,29.99,29.88,4,1,11,0.00
2013-7-17,74,66,60,54,49,46,72,55,39,30.27,29.93,9,2,13,0.02
2013-7-18,74,64,57,49,47,45,73,56,36,30.31,30.21,3,1,9,0.00
2013-7-19,72,61,54,54,50,48,94,71,43,30.26,30.13,6,1,10,0.00
2013-7-20,71,59,54,55,51,47,95,75,48,30.17,30.05,3,0,8,0.00
2013-7-21,76,61,53,55,51,44,96,75,32,30.06,29.98,6,1,8,0.00
2013-7-22,76,62,54,55,52,49,96,72,39,30.14,30.02,4,1,8,0.00
2013-7-23,79,62,52,54,50,43,97,71,31,30.16,30.06,3,1,10,0.00
2013-7-24,77,62,53,51,46,40,92,59,30,30.15,30.09,6,1,8,0.00
2013-7-25,77,62,51,53,48,39,95,63,30,30.19,30.12,4,1,11,0.00
2013-7-26,78,63,49,49,43,28,93,51,19,30.23,30.15,7,1,11,0.00
2013-7-27,76,62,49,47,43,33,91,54,21,30.23,30.07,6,1,11,0.00
2013-7-28,71,61,50,49,47,44,91,61,42,30.09,30.01,7,2,14,0.00
2013-7-29,73,62,54,52,47,44,93,60,35,30.09,30.02,4,1,9,0.00
2013-7-30,73,61,54,56,50,46,96,72,41,30.21,30.08,5,1,10,0.00
2013-7-31,70,60,54,55,52,48,96,76,48,30.20,30.07,5,1,8,0.00
2013-8-1,67,60,54,56,51,48,95,73,54,30.13,30.09,6,1,12,0.00
2013-8-2,61,59,57,59,55,49,96,88,65,30.21,30.12,3,0,7,0.49
2013-8-3,74,64,57,57,52,48,96,70,41,30.21,30.13,4,1,11,0.00
2013-8-4,78,64,54,57,52,48,97,70,36,30.15,30.02,3,0,7,0.00
2013-8-5,78,63,54,54,50,43,96,65,35,30.10,30.01,2,0,8,0.00
2013-8-6,78,62,51,53,47,40,97,62,27,30.09,30.00,2,0,7,0.00
2013-8-7,77,64,52,54,48,42,96,60,29,30.09,30.03,5,1,8,0.00
2013-8-8,76,64,56,58,50,41,95,65,34,30.10,30.03,9,1,14,0.00
2013-8-9,79,64,54,54,50,43,96,66,29,30.04,29.90,2,0,8,0.00
2013-8-10,76,64,58,59,52,48,95,67,38,30.09,29.95,7,1,14,0.03
2013-8-11,70,61,56,58,50,-100,96,69,47,30.14,30.07,3,-6,7,0.10
2013-8-12,73,62,54,54,50,46,95,66,40,30.15,30.09,4,1,7,0.00
2013-8-13,76,64,54,53,48,43,93,60,32,30.18,30.01,4,0,7,0.00
2013-8-14,82,65,53,63,52,40,95,68,24,30.02,29.96,5,1,9,0.07
2013-8-15,69,64,62,63,60,56,96,86,67,30.07,29.99,3,0,8,0.03
2013-8-16,81,68,60,61,55,43,96,68,26,30.07,30.01,6,1,11,0.00
2013-8-17,75,66,60,56,51,48,87,60,41,30.15,30.07,5,1,10,0.00
2013-8-18,73,65,58,50,47,41,71,53,37,30.19,30.15,8,2,13,0.00
2013-8-19,75,65,58,50,45,35,69,51,28,30.19,30.14,6,1,12,0.00
2013-8-20,74,62,53,51,45,37,91,56,27,30.25,30.15,6,1,10,0.00
2013-8-21,78,56,49,49,25,-100,93,44,23,30.18,30.01,6,-128,12,0.00
2013-8-22,80,66,52,50,45,39,75,49,26,30.03,29.86,2,0,6,0.00
2013-8-23,74,64,56,56,50,44,96,63,36,29.96,29.90,6,1,10,0.00
2013-8-24,75,63,58,60,51,39,95,67,30,30.00,29.94,3,0,7,0.03
2013-8-25,71,62,51,58,47,40,95,61,34,30.03,29.93,5,0,7,0.00
2013-8-26,77,65,59,58,47,-100,93,58,27,30.01,29.90,9,-10,20,0.01
2013-8-27,79,67,58,57,50,44,96,56,31,30.02,29.87,5,2,10,0.07
2013-8-28,80,66,58,64,56,48,97,73,33,29.96,29.90,7,2,11,0.14
2013-8-29,74,66,62,64,60,53,97,81,49,30.04,29.93,12,5,20,0.11
2013-8-30,76,67,58,55,49,38,75,55,27,30.21,30.03,9,2,13,0.00
2013-8-31,75,63,51,58,50,46,97,68,37,30.16,29.91,4,1,11,0.00
2013-9-1,77,60,54,56,39,-100,95,58,35,29.96,29.87,8,-58,8,0.00
2013-9-2,76,65,57,58,50,-100,94,63,35,30.01,29.93,11,-5,11,0.00
2013-9-3,72,63,59,62,56,50,97,80,55,30.11,30.01,3,0,6,0.10
2013-9-4,70,62,56,62,57,51,98,84,52,30.13,30.08,3,0,7,0.02
2013-9-5,67,59,55,61,55,-100,97,89,59,30.13,29.99,5,-11,10,0.30
2013-9-6,72,64,59,63,57,48,98,82,49,30.17,30.02,5,0,10,0.48
2013-9-7,72,58,60,61,34,-100,95,60,43,30.18,30.10,7,-117,10,0.00
2013-9-8,76,63,54,63,54,49,98,77,39,30.19,30.10,5,0,8,0.01
2013-9-9,74,62,56,59,54,50,98,78,44,30.15,30.06,3,0,8,0.00
2013-9-10,76,62,54,66,54,48,98,77,41,30.08,29.97,3,0,10,0.00
2013-9-11,85,68,56,60,53,44,96,63,25,30.02,29.95,2,0,8,0.00
2013-9-12,75,64,56,57,52,47,95,67,37,30.07,29.98,3,0,7,0.00
2013-9-13,63,60,57,60,58,55,98,90,76,30.04,29.95,2,0,6,0.00
2013-9-14,67,61,58,59,56,53,97,86,63,29.96,29.82,2,0,7,0.00
2013-9-15,64,59,55,61,57,54,97,94,75,29.87,29.79,4,0,6,0.28
2013-9-16,63,60,56,60,55,47,96,85,62,30.01,29.86,5,1,10,0.04
2013-9-17,63,58,54,54,48,43,95,72,51,30.01,29.94,5,1,7,0.00
2013-9-18,69,59,54,56,45,32,96,63,27,30.15,30.01,4,1,8,0.08
2013-9-19,78,62,49,49,40,27,91,49,16,30.13,29.82,5,1,10,0.00
2013-9-20,76,62,54,50,41,36,72,48,24,29.82,29.66,8,3,14,0.02
2013-9-21,66,60,56,52,47,40,85,63,39,29.79,29.71,5,1,8,0.00
2013-9-22,60,58,55,52,45,38,90,64,44,29.78,29.62,11,4,19,0.04
2013-9-23,60,56,52,51,44,35,92,65,42,30.04,29.78,10,2,17,0.01
2013-9-24,62,54,49,50,44,33,95,72,35,30.04,29.91,7,2,12,0.25
2013-9-25,60,52,46,50,44,36,96,77,41,30.11,29.94,4,1,10,0.01
2013-9-26,62,51,42,48,41,34,95,74,36,30.20,30.11,6,1,10,0.01
2013-9-27,55,52,48,52,46,40,95,80,60,30.19,29.91,10,5,17,0.07
2013-9-28,60,55,50,58,52,43,95,88,68,29.91,29.38,15,6,20,0.61
2013-9-29,57,54,50,50,42,35,86,65,47,29.59,29.20,14,8,22,0.34
2013-9-30,59,53,49,44,40,36,72,61,48,29.97,29.43,8,3,12,0.03
2013-10-1,53,50,48,48,38,34,92,64,56,30.19,29.97,9,4,14,0.08
2013-10-2,52,50,48,50,47,40,95,91,68,30.25,30.14,7,2,11,0.15
2013-10-3,58,50,42,48,42,32,96,77,40,30.54,30.26,4,0,8,0.01
2013-10-4,60,49,38,45,39,32,96,72,35,30.58,30.43,5,0,8,0.01
2013-10-5,66,56,49,48,39,34,93,55,31,30.44,30.22,5,1,10,0.00
2013-10-6,76,59,45,47,34,6,95,52,7,30.21,29.92,12,4,26,0.00
2013-10-7,60,55,51,52,44,35,95,69,41,30.08,29.91,12,3,13,0.24
2013-10-8,56,52,42,43,37,30,94,58,38,30.16,30.03,12,3,17,0.06
2013-10-9,58,47,37,41,36,27,95,71,31,30.23,30.03,5,0,8,0.01
2013-10-10,56,50,44,44,40,37,94,69,51,30.15,30.02,5,1,8,0.00
2013-10-11,55,48,40,47,42,39,96,83,57,30.23,30.15,2,0,5,0.00
2013-10-12,56,50,42,50,44,37,96,82,50,30.30,30.15,2,0,6,0.03
2013-10-13,57,47,41,47,40,32,96,80,40,30.45,30.30,3,0,6,0.00
2013-10-14,57,45,37,48,39,35,97,82,47,30.53,30.45,3,0,7,0.01
2013-10-15,59,48,38,47,40,34,96,78,39,30.48,30.26,2,0,6,0.01
2013-10-16,57,49,43,48,44,41,96,86,56,30.29,30.24,4,0,11,0.00
2013-10-17,57,50,42,48,44,39,95,81,51,30.36,30.29,2,0,7,0.00
2013-10-18,56,46,40,50,42,38,97,88,58,30.34,30.24,2,0,6,0.00
2013-10-19,50,46,43,48,45,42,97,95,90,30.28,30.23,2,0,6,0.01
2013-10-20,50,48,46,46,46,44,95,92,81,30.29,30.23,1,0,5,0.00
2013-10-21,50,48,47,48,47,46,96,94,90,30.25,30.19,2,0,5,0.00
2013-10-22,50,47,45,48,46,44,97,97,96,30.21,30.12,2,0,6,0.01
2013-10-23,56,47,42,52,45,41,98,93,64,30.14,30.06,3,0,7,0.01
2013-10-24,49,45,41,48,44,40,98,97,96,30.21,30.11,2,0,6,0.01
2013-10-25,53,49,46,48,45,41,97,88,65,30.41,30.21,5,0,10,0.00
2013-10-26,55,50,47,47,42,35,95,76,46,30.42,30.28,2,0,8,0.00
2013-10-27,58,52,46,48,38,21,96,66,27,30.27,29.98,10,3,21,0.15
2013-10-28,59,52,39,28,18,2,63,29,12,30.03,29.96,7,2,13,0.00
2013-10-29,57,43,35,31,26,12,82,53,17,30.12,30.03,7,2,11,0.00
2013-10-30,56,47,39,41,30,24,70,54,31,30.21,30.11,11,5,19,0.00
2013-10-31,51,50,48,50,46,33,95,86,53,30.34,30.16,10,3,17,0.09
2013-11-1,57,53,50,51,46,41,96,78,56,30.35,29.91,6,2,10,0.04
2013-11-2,53,48,42,50,38,-100,95,77,49,29.94,29.50,21,-6,27,0.68
2013-11-3,51,42,35,43,36,23,95,81,34,30.19,29.95,10,2,10,0.15
2013-11-4,47,40,32,33,28,23,94,66,41,30.29,30.14,10,3,11,0.05
2013-11-5,46,43,41,45,40,31,96,88,66,30.35,30.11,9,2,16,0.04
2013-11-6,51,46,42,45,39,33,96,79,51,30.41,30.10,9,1,12,0.07
2013-11-7,51,49,46,48,42,36,95,79,58,30.08,29.76,14,8,21,0.16
2013-11-8,55,48,44,45,39,31,92,73,40,30.24,30.05,6,2,11,0.05
2013-11-9,49,44,39,43,38,32,95,81,55,30.24,30.16,6,1,7,0.00
2013-11-10,48,45,43,45,43,41,96,93,84,30.25,30.19,2,0,4,0.03
2013-11-11,60,49,39,46,40,31,95,73,34,30.25,30.08,4,0,7,0.00
2013-11-12,56,54,50,47,40,25,83,59,32,30.42,30.09,11,4,19,0.01
2013-11-13,57,52,49,50,44,38,92,73,50,30.51,30.40,4,0,7,0.01
2013-11-14,52,47,44,47,43,37,94,87,60,30.40,30.14,4,0,6,0.06
2013-11-15,47,44,42,44,41,30,94,90,51,30.15,29.42,19,4,28,0.47
2013-11-16,46,42,39,42,32,-100,94,71,38,29.83,29.43,9,-10,17,0.30
2013-11-17,49,45,40,47,39,32,94,81,63,29.96,29.84,8,3,11,0.03
2013-11-18,51,49,47,49,47,41,95,92,76,29.96,29.61,10,4,14,0.14
2013-11-19,51,43,35,49,22,0,95,52,16,30.16,29.61,11,2,19,0.13
2013-11-20,41,33,27,25,18,8,88,56,26,30.62,30.17,4,0,8,0.00
2013-11-21,40,30,24,23,17,8,90,61,27,30.78,30.62,3,0,7,0.00
2013-11-22,42,32,26,25,20,15,89,63,37,30.77,30.56,3,0,7,0.01
2013-11-23,43,34,27,32,26,20,92,74,46,30.56,30.30,2,0,5,0.00
2013-11-24,47,36,29,36,31,27,94,84,48,30.34,30.26,5,0,6,0.00
2013-11-25,48,38,32,36,31,22,94,78,38,30.41,30.34,6,1,9,0.00
2013-11-26,46,39,30,33,29,25,94,70,45,30.36,30.19,7,1,7,0.01
2013-11-27,53,43,36,36,30,27,93,61,39,30.19,30.05,6,0,7,0.00
2013-11-28,51,41,34,36,32,26,94,71,40,30.25,30.10,7,1,8,0.01
2013-11-29,48,44,41,44,34,29,94,66,51,30.39,30.26,6,1,7,0.02
2013-11-30,50,47,45,47,40,34,94,77,58,30.39,30.14,8,6,13,0.10
2013-12-1,52,48,42,49,42,22,94,82,44,30.14,29.80,17,4,29,0.50
2013-12-2,44,39,31,34,24,16,92,57,33,30.15,29.83,19,5,29,0.01
2013-12-3,38,31,25,29,11,2,91,46,22,30.42,30.15,3,0,7,0.00
2013-12-4,35,27,22,14,6,-5,61,41,18,30.47,30.41,3,0,6,0.00
2013-12-5,32,26,23,13,9,3,58,47,38,30.44,30.31,5,1,7,0.00
2013-12-6,32,26,19,10,-14,-29,55,19,6,30.36,30.27,8,2,14,0.00
2013-12-7,28,20,11,-3,-13,-32,43,24,6,30.52,30.36,5,1,7,0.00
2013-12-8,33,22,16,6,-4,-100,49,37,21,30.67,30.51,7,-32,12,0.00
2013-12-9,30,26,20,17,9,3,58,48,38,30.69,30.59,8,4,11,0.00
2013-12-10,38,33,30,24,21,17,75,60,49,30.59,30.52,6,2,7,0.00
2013-12-11,39,34,30,26,21,16,82,59,39,30.52,30.26,4,0,6,0.00
2013-12-12,45,40,31,34,24,18,75,55,33,30.26,30.11,12,6,22,0.02
2013-12-13,46,44,42,45,42,35,95,94,71,30.50,30.21,8,3,12,0.01
2013-12-14,49,46,43,44,38,33,95,76,56,30.50,30.37,10,6,15,0.04
2013-12-15,50,48,44,46,41,34,95,78,58,30.53,30.39,10,3,13,0.01
2013-12-16,50,42,34,40,37,32,95,85,55,30.58,30.36,5,1,8,0.00
2013-12-17,41,36,30,40,35,29,95,94,92,30.35,30.19,7,3,11,0.01
2013-12-18,44,39,30,40,28,18,94,67,36,30.24,30.11,10,2,11,0.02
2013-12-19,36,32,27,24,13,6,76,46,31,30.44,30.25,7,1,8,0.00
2013-12-20,37,33,30,35,30,16,95,90,50,30.29,29.79,13,6,19,0.21
2013-12-21,39,37,34,38,36,33,96,96,95,30.25,29.93,6,0,12,0.13
2013-12-22,47,42,38,46,40,36,96,96,96,30.37,30.24,8,4,12,0.26
2013-12-23,49,47,44,47,38,27,96,73,46,30.59,30.21,18,6,25,0.17
2013-12-24,46,38,31,38,23,-100,94,70,51,30.70,30.59,3,-42,4,0.00
2013-12-25,41,35,29,35,27,-100,95,78,56,30.62,30.48,4,-17,5,0.01
2013-12-26,44,39,33,37,31,27,94,76,53,30.48,30.29,3,0,7,0.00
2013-12-27,46,40,32,42,36,31,95,89,69,30.44,30.17,9,2,12,0.04
2013-12-28,47,42,37,43,38,35,96,89,65,30.61,30.44,0,0,0,0.00
2013-12-29,42,39,38,40,38,34,96,93,77,30.56,30.40,5,0,6,0.01
2013-12-30,44,40,36,41,38,35,96,91,77,30.40,30.19,10,1,10,0.01
2013-12-31,45,44,41,44,41,35,95,90,71,30.46,30.27,7,1,13,0.02
2014-1-1,42,39,33,41,38,32,96,96,95,30.50,30.33,5,0,7,0.00
2014-1-2,48,44,41,44,38,30,96,81,50,30.32,29.98,11,5,25,0.45